createdAt,value
2019-03-21T00:02:02.024Z,6.00
2019-03-21T00:04:30.256Z,6.00
2019-03-21T00:06:58.590Z,5.90
2019-03-21T00:09:26.928Z,5.80
2019-03-21T00:12:00.012Z,5.80
2019-03-21T00:14:43.465Z,5.70
2019-03-21T00:17:18.672Z,5.80
2019-03-21T00:19:46.922Z,5.80
2019-03-21T00:22:15.429Z,5.80
2019-03-21T00:24:43.691Z,5.80
2019-03-21T00:27:11.940Z,5.80
2019-03-21T00:29:40.188Z,5.80
2019-03-21T00:32:08.481Z,5.90
2019-03-21T00:34:36.724Z,5.90
2019-03-21T00:37:04.970Z,5.90
2019-03-21T00:39:33.296Z,5.90
2019-03-21T00:42:01.547Z,5.80
2019-03-21T00:44:29.798Z,5.90
2019-03-21T00:46:58.052Z,5.80
2019-03-21T00:49:26.301Z,5.80
2019-03-21T00:51:54.710Z,5.80
2019-03-21T00:54:22.984Z,5.80
2019-03-21T00:56:51.312Z,5.80
2019-03-21T00:59:19.604Z,5.60
2019-03-21T01:01:47.878Z,5.60
2019-03-21T01:04:16.130Z,5.50
2019-03-21T01:06:44.406Z,5.50
2019-03-21T01:09:14.699Z,5.40
2019-03-21T01:11:42.967Z,5.30
2019-03-21T01:14:11.244Z,5.20
2019-03-21T01:16:39.500Z,5.20
2019-03-21T01:19:07.743Z,5.30
2019-03-21T01:21:35.988Z,5.30
2019-03-21T01:24:04.261Z,5.30
2019-03-21T01:26:32.491Z,5.30
2019-03-21T01:29:00.741Z,5.30
2019-03-21T01:31:29.008Z,5.20
2019-03-21T01:33:57.354Z,5.20
2019-03-21T01:36:25.603Z,5.20
2019-03-21T01:38:53.875Z,5.10
2019-03-21T01:41:22.182Z,5.10
2019-03-21T01:43:50.469Z,5.00
2019-03-21T01:46:21.681Z,4.90
2019-03-21T01:48:49.937Z,4.90
2019-03-21T01:51:18.224Z,4.90
2019-03-21T01:53:46.483Z,5.00
2019-03-21T01:56:14.727Z,4.90
2019-03-21T01:58:42.999Z,4.90
2019-03-21T02:01:11.258Z,4.90
2019-03-21T02:03:39.536Z,4.90
2019-03-21T02:06:07.781Z,4.90
2019-03-21T02:08:36.039Z,4.90
2019-03-21T02:11:04.307Z,4.90
2019-03-21T02:13:32.587Z,4.90
2019-03-21T02:16:00.846Z,4.90
2019-03-21T02:18:29.203Z,4.90
2019-03-21T02:20:57.447Z,4.90
2019-03-21T02:23:26.059Z,4.90
2019-03-21T02:25:54.397Z,4.90
2019-03-21T02:28:23.028Z,4.80
2019-03-21T02:30:52.954Z,4.80
2019-03-21T02:33:35.867Z,4.80
2019-03-21T02:36:06.866Z,4.80
2019-03-21T02:38:35.112Z,4.80
2019-03-21T02:41:09.468Z,4.80
2019-03-21T02:43:37.914Z,4.80
2019-03-21T02:46:06.265Z,4.80
2019-03-21T02:48:34.535Z,4.80
2019-03-21T02:51:02.770Z,4.80
2019-03-21T02:53:31.032Z,4.80
2019-03-21T02:55:59.290Z,4.70
2019-03-21T02:58:27.652Z,4.70
2019-03-21T03:00:55.886Z,4.70
2019-03-21T03:03:24.150Z,4.60
2019-03-21T03:05:52.423Z,4.70
2019-03-21T03:08:20.892Z,4.60
2019-03-21T03:10:52.357Z,4.50
2019-03-21T03:13:20.601Z,4.50
2019-03-21T03:15:48.843Z,4.50
2019-03-21T03:18:18.883Z,4.50
2019-03-21T03:20:47.169Z,4.50
2019-03-21T03:23:15.419Z,4.60
2019-03-21T03:25:43.741Z,4.60
2019-03-21T03:28:18.159Z,4.70
2019-03-21T03:30:46.391Z,4.50
2019-03-21T03:33:14.671Z,4.30
2019-03-21T03:35:42.932Z,4.30
2019-03-21T03:38:11.168Z,4.50
2019-03-21T03:40:48.478Z,4.50
2019-03-21T03:43:16.738Z,4.50
2019-03-21T03:45:45.154Z,4.70
2019-03-21T03:48:13.445Z,4.50
2019-03-21T03:50:41.738Z,4.40
2019-03-21T03:53:10.023Z,4.40
2019-03-21T03:55:38.342Z,4.40
2019-03-21T03:58:15.681Z,4.30
2019-03-21T04:00:43.929Z,4.20
2019-03-21T04:03:12.193Z,4.10
2019-03-21T04:08:08.470Z,4.20
2019-03-21T04:10:48.243Z,4.30
2019-03-21T04:13:16.562Z,4.20
2019-03-21T04:18:14.945Z,4.20
2019-03-21T04:20:48.963Z,3.80
2019-03-21T04:25:58.516Z,4.10
2019-03-21T04:28:26.801Z,4.10
2019-03-21T04:30:55.079Z,4.10
2019-03-21T04:35:51.562Z,4.00
2019-03-21T04:38:19.867Z,3.90
2019-03-21T04:40:48.113Z,4.00
2019-03-21T04:43:16.403Z,3.80
2019-03-21T04:45:44.633Z,4.10
2019-03-21T04:48:12.893Z,4.20
2019-03-21T04:50:42.100Z,4.00
2019-03-21T04:53:10.408Z,4.20
2019-03-21T04:55:38.733Z,4.00
2019-03-21T04:58:06.992Z,4.10
2019-03-21T05:00:42.989Z,4.00
2019-03-21T05:03:13.961Z,4.00
2019-03-21T05:05:42.303Z,4.10
2019-03-21T05:08:11.075Z,3.80
2019-03-21T05:10:39.373Z,4.20
2019-03-21T05:15:40.732Z,4.20
2019-03-21T05:18:12.507Z,3.90
2019-03-21T05:23:08.859Z,3.90
2019-03-21T05:28:05.138Z,3.80
2019-03-21T05:30:45.908Z,4.00
2019-03-21T05:33:14.207Z,3.90
2019-03-21T05:35:42.442Z,3.80
2019-03-21T05:38:11.482Z,3.80
2019-03-21T05:40:42.464Z,3.90
2019-03-21T05:48:27.941Z,4.00
2019-03-21T05:50:56.196Z,4.00
2019-03-21T05:53:24.470Z,3.90
2019-03-21T05:55:52.774Z,3.80
2019-03-21T05:58:21.427Z,3.90
2019-03-21T06:00:58.929Z,3.60
2019-03-21T06:03:30.853Z,3.80
2019-03-21T06:06:05.141Z,3.80
2019-03-21T06:08:36.510Z,3.70
2019-03-21T06:13:32.784Z,3.80
2019-03-21T06:16:05.945Z,3.80
2019-03-21T06:18:53.544Z,3.80
2019-03-21T06:21:37.230Z,4.10
2019-03-21T06:46:48.906Z,4.90
2019-03-21T06:49:10.710Z,4.70
2019-03-21T06:51:39.017Z,4.80
2019-03-21T06:54:07.364Z,4.80
2019-03-21T06:56:35.601Z,4.80
2019-03-21T06:59:03.852Z,4.90
2019-03-21T07:01:32.107Z,4.90
2019-03-21T07:04:07.040Z,5.10
2019-03-21T07:06:30.353Z,5.10
2019-03-21T07:08:58.749Z,5.00
2019-03-21T07:11:27.019Z,5.30
2019-03-21T07:13:55.346Z,5.10
2019-03-21T07:16:23.625Z,5.50
2019-03-21T07:18:51.938Z,5.60
2019-03-21T07:21:20.199Z,5.60
2019-03-21T07:23:48.455Z,5.70
2019-03-21T07:26:16.683Z,5.60
2019-03-21T07:28:44.966Z,5.60
2019-03-21T07:31:13.206Z,5.80
2019-03-21T07:33:41.493Z,6.00
2019-03-21T07:36:09.723Z,6.00
2019-03-21T07:38:37.968Z,6.10
2019-03-21T07:41:06.400Z,6.10
2019-03-21T07:43:34.638Z,6.10
2019-03-21T07:46:02.882Z,6.20
2019-03-21T07:48:31.130Z,6.30
2019-03-21T07:50:59.403Z,6.30
2019-03-21T07:53:27.696Z,6.30
2019-03-21T07:55:56.088Z,6.40
2019-03-21T07:58:24.386Z,6.60
2019-03-21T08:00:52.645Z,6.60
2019-03-21T08:03:20.914Z,6.60
2019-03-21T08:05:49.186Z,6.70
2019-03-21T08:08:17.425Z,6.80
2019-03-21T08:10:45.706Z,6.90
2019-03-21T08:13:13.957Z,7.00
2019-03-21T08:15:42.197Z,7.00
2019-03-21T08:18:10.465Z,7.10
2019-03-21T08:20:38.690Z,7.20
2019-03-21T08:23:06.956Z,7.30
2019-03-21T08:25:35.177Z,7.30
2019-03-21T08:28:03.544Z,7.40
2019-03-21T08:30:33.618Z,7.50
2019-03-21T08:33:03.244Z,7.60
2019-03-21T08:35:31.696Z,7.60
2019-03-21T08:37:59.961Z,7.70
2019-03-21T08:40:28.260Z,7.80
2019-03-21T08:42:56.496Z,7.90
2019-03-21T08:45:24.760Z,8.00
2019-03-21T08:47:53.078Z,8.10
2019-03-21T08:50:21.338Z,8.20
2019-03-21T08:52:49.590Z,8.30
2019-03-21T08:55:17.862Z,8.40
2019-03-21T08:57:46.119Z,8.50
2019-03-21T09:00:14.992Z,8.60
2019-03-21T09:02:43.266Z,8.70
2019-03-21T09:05:11.560Z,8.80
2019-03-21T09:07:39.906Z,8.90
2019-03-21T09:10:10.019Z,8.90
2019-03-21T09:12:38.298Z,9.10
2019-03-21T09:15:08.928Z,9.10
2019-03-21T09:17:37.266Z,9.20
2019-03-21T09:20:07.290Z,9.20
2019-03-21T09:22:35.623Z,9.20
2019-03-21T09:25:08.348Z,9.30
2019-03-21T09:27:36.657Z,9.50
2019-03-21T09:30:08.174Z,9.50
2019-03-21T09:32:36.543Z,9.70
2019-03-21T09:35:06.638Z,9.70
2019-03-21T09:37:36.498Z,9.80
2019-03-21T09:40:07.257Z,9.90
2019-03-21T09:42:35.765Z,9.90
2019-03-21T09:45:09.484Z,10.00
2019-03-21T09:47:37.732Z,10.20
2019-03-21T09:50:07.115Z,10.20
2019-03-21T09:52:38.220Z,10.30
2019-03-21T09:55:07.029Z,10.40
2019-03-21T09:57:35.348Z,10.50
2019-03-21T10:02:33.782Z,10.60
2019-03-21T10:05:02.055Z,10.70
2019-03-21T10:07:30.384Z,10.80
2019-03-21T10:09:58.675Z,10.90
2019-03-21T10:12:26.915Z,10.90
2019-03-21T10:14:55.150Z,11.00
2019-03-21T10:17:23.503Z,11.20
2019-03-21T10:19:51.868Z,11.20
2019-03-21T10:22:20.154Z,11.30
2019-03-21T10:24:48.475Z,11.40
2019-03-21T10:27:16.760Z,11.60
2019-03-21T10:29:45.026Z,11.70
2019-03-21T10:32:14.427Z,11.90
2019-03-21T10:34:42.990Z,11.90
2019-03-21T10:37:11.252Z,12.10
2019-03-21T10:39:39.517Z,12.30
2019-03-21T10:42:08.134Z,12.30
2019-03-21T10:47:04.853Z,12.40
2019-03-21T10:49:33.137Z,12.60
2019-03-21T10:52:01.463Z,12.70
2019-03-21T10:54:29.902Z,12.90
2019-03-21T10:56:58.167Z,13.00
2019-03-21T10:59:26.482Z,13.10
2019-03-21T11:01:54.821Z,13.30
2019-03-21T11:04:23.206Z,13.40
2019-03-21T11:07:01.463Z,13.60
2019-03-21T11:09:30.258Z,13.70
2019-03-21T11:11:59.314Z,13.90
2019-03-21T11:14:28.295Z,14.00
2019-03-21T11:16:56.836Z,14.20
2019-03-21T11:19:25.186Z,14.30
2019-03-21T11:21:53.709Z,14.50
2019-03-21T11:24:22.006Z,14.60
2019-03-21T11:26:50.461Z,14.70
2019-03-21T11:29:18.865Z,14.90
2019-03-21T11:31:47.173Z,15.00
2019-03-21T11:34:15.467Z,15.20
2019-03-21T11:36:43.718Z,15.30
2019-03-21T11:39:11.968Z,15.40
2019-03-21T11:41:40.384Z,15.60
2019-03-21T11:44:08.725Z,15.70
2019-03-21T11:46:37.022Z,15.90
2019-03-21T11:49:05.454Z,16.10
2019-03-21T11:51:33.829Z,16.20
2019-03-21T11:54:02.220Z,16.40
2019-03-21T11:56:30.534Z,16.50
2019-03-21T11:58:58.876Z,16.60
2019-03-21T12:01:27.274Z,16.80
2019-03-21T12:03:55.643Z,17.00
2019-03-21T12:06:23.947Z,17.10
2019-03-21T12:08:52.202Z,17.20
2019-03-21T12:11:21.373Z,17.40
2019-03-21T12:13:50.296Z,17.50
2019-03-21T12:16:18.651Z,17.80
2019-03-21T12:18:46.987Z,18.00
2019-03-21T12:21:15.252Z,18.10
2019-03-21T12:23:43.594Z,18.40
2019-03-21T12:26:11.865Z,18.60
2019-03-21T12:28:40.260Z,18.80
2019-03-21T12:31:08.638Z,19.10
2019-03-21T12:33:36.908Z,19.30
2019-03-21T12:36:05.248Z,19.50
2019-03-21T12:38:33.515Z,19.70
2019-03-21T12:41:01.789Z,19.90
2019-03-21T12:43:30.164Z,20.20
2019-03-21T12:45:58.488Z,20.40
2019-03-21T12:48:26.880Z,20.60
2019-03-21T12:50:55.242Z,20.80
2019-03-21T12:53:23.518Z,21.10
2019-03-21T12:55:51.871Z,21.30
2019-03-21T12:58:20.143Z,21.60
2019-03-21T13:00:48.593Z,21.90
2019-03-21T13:03:16.888Z,22.10
2019-03-21T13:05:45.242Z,22.20
2019-03-21T13:08:13.508Z,22.50
2019-03-21T13:10:41.783Z,22.70
2019-03-21T13:13:10.033Z,22.90
2019-03-21T13:15:38.339Z,23.10
2019-03-21T13:18:06.574Z,23.30
2019-03-21T13:20:34.899Z,23.60
2019-03-21T13:23:03.152Z,23.80
2019-03-21T13:25:31.405Z,24.00
2019-03-21T13:27:59.735Z,24.20
2019-03-21T13:30:28.002Z,24.20
2019-03-21T13:32:56.249Z,24.50
2019-03-21T13:35:32.770Z,24.60
2019-03-21T13:37:54.483Z,24.80
2019-03-21T13:40:25.222Z,25.00
2019-03-21T13:42:53.742Z,25.10
2019-03-21T13:45:22.084Z,25.40
2019-03-21T13:47:50.310Z,25.60
2019-03-21T13:50:18.571Z,25.70
2019-03-21T13:52:46.807Z,25.80
2019-03-21T13:55:15.067Z,26.10
2019-03-21T13:57:43.354Z,26.30
2019-03-21T14:00:21.633Z,26.30
2019-03-21T14:02:49.876Z,26.40
2019-03-21T14:05:18.108Z,26.50
2019-03-21T14:07:46.359Z,26.60
2019-03-21T14:10:14.631Z,26.60
2019-03-21T14:12:42.896Z,26.60
2019-03-21T14:15:16.394Z,26.60
2019-03-21T14:17:44.634Z,26.80
2019-03-21T14:20:14.117Z,26.80
2019-03-21T14:22:42.384Z,26.90
2019-03-21T14:25:10.627Z,27.00
2019-03-21T14:27:38.878Z,27.10
2019-03-21T14:30:09.852Z,27.10
2019-03-21T14:32:38.122Z,27.20
2019-03-21T14:35:07.208Z,27.30
2019-03-21T14:37:35.824Z,27.30
2019-03-21T14:40:06.180Z,27.20
2019-03-21T14:42:36.185Z,27.30
2019-03-21T14:45:06.839Z,27.40
2019-03-21T14:47:36.415Z,27.40
2019-03-21T14:50:15.213Z,27.50
2019-03-21T14:52:43.510Z,27.40
2019-03-21T14:55:16.873Z,27.40
2019-03-21T14:57:45.187Z,27.50
2019-03-21T15:00:19.941Z,27.50
2019-03-21T15:02:48.511Z,27.50
2019-03-21T15:05:16.790Z,27.40
2019-03-21T15:07:45.124Z,27.50
2019-03-21T15:10:15.959Z,27.60
2019-03-21T15:12:44.211Z,27.60
2019-03-21T15:15:14.105Z,27.50
2019-03-21T15:17:42.377Z,27.30
2019-03-21T15:20:13.357Z,27.20
2019-03-21T15:22:41.623Z,27.30
2019-03-21T15:25:11.497Z,27.30
2019-03-21T15:27:39.763Z,27.40
2019-03-21T15:30:11.432Z,27.30
2019-03-21T15:32:41.808Z,27.30
2019-03-21T15:35:11.041Z,27.20
2019-03-21T15:37:39.325Z,26.90
2019-03-21T15:40:09.713Z,26.70
2019-03-21T15:42:38.046Z,26.50
2019-03-21T15:47:40.731Z,25.70
2019-03-21T15:50:11.860Z,25.30
2019-03-21T15:52:40.127Z,25.00
2019-03-21T15:55:08.426Z,24.70
2019-03-21T15:57:36.677Z,24.50
2019-03-21T16:00:08.082Z,24.20
2019-03-21T16:02:37.502Z,23.90
2019-03-21T16:05:05.944Z,23.50
2019-03-21T16:07:34.222Z,23.10
2019-03-21T16:10:02.475Z,22.90
2019-03-21T16:12:31.019Z,22.60
2019-03-21T16:14:59.317Z,22.30
2019-03-21T16:17:27.568Z,22.00
2019-03-21T16:19:55.831Z,21.70
2019-03-21T16:22:24.089Z,21.50
2019-03-21T16:24:52.646Z,21.20
2019-03-21T16:27:20.880Z,20.90
2019-03-21T16:29:49.254Z,20.70
2019-03-21T16:32:17.517Z,20.50
2019-03-21T16:34:47.978Z,20.20
2019-03-21T16:37:15.775Z,20.00
2019-03-21T16:39:44.076Z,19.80
2019-03-21T16:42:12.340Z,19.60
2019-03-21T16:44:40.577Z,19.40
2019-03-21T16:47:08.854Z,19.10
2019-03-21T16:49:37.107Z,18.90
2019-03-21T16:52:05.386Z,18.80
2019-03-21T16:54:33.635Z,18.60
2019-03-21T16:57:01.881Z,18.50
2019-03-21T16:59:30.246Z,18.30
2019-03-21T17:01:58.684Z,18.20
2019-03-21T17:04:26.953Z,18.00
2019-03-21T17:06:55.222Z,17.80
2019-03-21T17:09:23.580Z,17.60
2019-03-21T17:11:52.026Z,17.50
2019-03-21T17:14:20.382Z,17.30
2019-03-21T17:16:48.638Z,17.20
2019-03-21T17:19:17.494Z,17.10
2019-03-21T17:21:46.037Z,16.90
2019-03-21T17:24:14.284Z,16.80
2019-03-21T17:26:43.082Z,16.60
2019-03-21T17:29:11.444Z,16.40
2019-03-21T17:31:48.113Z,16.30
2019-03-21T17:34:16.389Z,16.20
2019-03-21T17:36:44.636Z,16.10
2019-03-21T17:39:12.939Z,16.00
2019-03-21T17:41:43.351Z,15.90
2019-03-21T17:44:11.464Z,15.80
2019-03-21T17:46:45.171Z,15.70
2019-03-21T17:49:15.103Z,15.60
2019-03-21T17:51:43.353Z,15.50
2019-03-21T17:54:11.619Z,15.40
2019-03-21T17:56:40.564Z,15.30
2019-03-21T17:59:08.961Z,15.30
2019-03-21T18:01:40.981Z,15.20
2019-03-21T18:04:09.272Z,15.10
2019-03-21T18:06:38.126Z,15.00
2019-03-21T18:09:07.779Z,14.90
2019-03-21T18:11:36.127Z,14.80
2019-03-21T18:14:04.568Z,14.70
2019-03-21T18:16:33.842Z,14.60
2019-03-21T18:19:11.092Z,14.60
2019-03-21T18:21:40.529Z,14.50
2019-03-21T18:24:08.955Z,14.50
2019-03-21T18:26:39.113Z,14.40
2019-03-21T18:29:07.407Z,14.30
2019-03-21T18:31:35.777Z,14.20
2019-03-21T18:34:04.205Z,14.10
2019-03-21T18:36:48.880Z,14.00
2019-03-21T18:39:17.497Z,14.00
2019-03-21T18:41:45.869Z,13.90
2019-03-21T18:44:20.701Z,13.80
2019-03-21T18:46:52.988Z,13.80
2019-03-21T18:49:23.333Z,13.70
2019-03-21T18:51:51.664Z,13.60
2019-03-21T18:54:19.970Z,13.50
2019-03-21T18:56:48.402Z,13.50
2019-03-21T18:59:16.928Z,13.40
2019-03-21T19:01:58.100Z,13.30
2019-03-21T19:04:19.092Z,13.20
2019-03-21T19:06:47.411Z,13.10
2019-03-21T19:12:21.788Z,13.10
2019-03-21T19:14:47.671Z,13.00
2019-03-21T19:17:16.192Z,12.90
2019-03-21T19:19:44.728Z,12.90
2019-03-21T19:22:12.983Z,12.90
2019-03-21T19:24:41.271Z,12.90
2019-03-21T19:27:09.552Z,12.90
2019-03-21T19:29:37.802Z,12.80
2019-03-21T19:32:06.088Z,12.80
2019-03-21T19:34:34.352Z,12.70
2019-03-21T19:37:02.587Z,12.60
2019-03-21T19:39:30.842Z,12.60
2019-03-21T19:41:59.099Z,12.50
2019-03-21T19:44:27.426Z,12.50
2019-03-21T19:46:56.062Z,12.40
2019-03-21T19:49:24.317Z,12.40
2019-03-21T19:51:52.563Z,12.30
2019-03-21T19:54:20.849Z,12.30
2019-03-21T19:56:49.126Z,12.30
2019-03-21T19:59:17.462Z,12.20
2019-03-21T20:04:14.013Z,12.10
2019-03-21T20:06:42.379Z,12.00
2019-03-21T20:09:10.724Z,12.00
2019-03-21T20:11:38.986Z,11.90
2019-03-21T20:14:07.232Z,11.90
2019-03-21T20:16:44.229Z,11.90
2019-03-21T20:19:12.518Z,11.90
2019-03-21T20:21:47.939Z,11.90
2019-03-21T20:24:10.865Z,11.80
2019-03-21T20:26:39.137Z,11.80
2019-03-21T20:29:07.377Z,11.70
2019-03-21T20:31:35.655Z,11.60
2019-03-21T20:34:03.962Z,11.60
2019-03-21T20:36:32.229Z,11.50
2019-03-21T20:39:00.506Z,11.50
2019-03-21T20:41:28.762Z,11.40
2019-03-21T20:43:57.043Z,11.40
2019-03-21T20:46:25.313Z,11.30
2019-03-21T20:48:52.667Z,11.30
2019-03-21T20:51:20.938Z,11.20
2019-03-21T20:53:49.276Z,11.10
2019-03-21T20:56:17.529Z,11.10
2019-03-21T20:58:45.801Z,11.00
2019-03-21T21:01:14.192Z,11.00
2019-03-21T21:03:42.521Z,10.90
2019-03-21T21:06:10.805Z,10.90
2019-03-21T21:08:39.139Z,10.90
2019-03-21T21:11:07.616Z,10.80
2019-03-21T21:13:36.028Z,10.80
2019-03-21T21:16:04.402Z,10.80
2019-03-21T21:18:32.677Z,10.80
2019-03-21T21:21:00.954Z,10.80
2019-03-21T21:23:29.275Z,10.80
2019-03-21T21:26:05.548Z,10.80
2019-03-21T21:28:27.605Z,10.70
2019-03-21T21:30:55.891Z,10.70
2019-03-21T21:33:24.162Z,10.60
2019-03-21T21:35:52.414Z,10.60
2019-03-21T21:38:20.871Z,10.50
2019-03-21T21:40:49.207Z,10.40
2019-03-21T21:43:17.472Z,10.30
2019-03-21T21:45:45.710Z,10.30
2019-03-21T21:48:15.191Z,10.20
2019-03-21T21:50:43.495Z,10.20
2019-03-21T21:53:11.765Z,10.30
2019-03-21T21:55:40.132Z,10.20
2019-03-21T21:58:08.387Z,10.10
2019-03-21T22:00:36.651Z,10.00
2019-03-21T22:03:04.920Z,9.90
2019-03-21T22:05:33.156Z,9.90
2019-03-21T22:08:01.456Z,9.90
2019-03-21T22:10:29.795Z,9.90
2019-03-21T22:15:45.481Z,9.90
2019-03-21T22:21:32.438Z,9.90
2019-03-21T22:30:49.631Z,9.60
2019-03-21T22:36:55.661Z,9.50
2019-03-21T22:39:48.517Z,9.40
2019-03-21T22:42:25.437Z,9.40
2019-03-21T22:44:54.653Z,9.30
2019-03-21T22:47:22.875Z,9.20
2019-03-21T22:49:51.322Z,9.20
2019-03-21T22:52:19.611Z,9.00
2019-03-21T22:54:47.859Z,9.00
2019-03-21T22:57:16.139Z,8.90
2019-03-21T22:59:44.426Z,8.90
2019-03-21T23:02:12.695Z,8.90
2019-03-21T23:04:40.946Z,8.90
2019-03-21T23:07:09.203Z,8.90
2019-03-21T23:09:37.503Z,8.90
2019-03-21T23:12:05.751Z,8.90
2019-03-21T23:14:34.002Z,8.80
2019-03-21T23:17:02.300Z,8.80
2019-03-21T23:19:30.556Z,8.80
2019-03-21T23:21:58.870Z,8.80
2019-03-21T23:24:30.234Z,8.80
2019-03-21T23:26:58.528Z,8.80
2019-03-21T23:29:26.803Z,8.80
2019-03-21T23:31:55.156Z,8.80
2019-03-21T23:34:23.440Z,8.70
2019-03-21T23:36:51.793Z,8.80
2019-03-21T23:39:20.048Z,8.70
2019-03-21T23:41:48.302Z,8.70
2019-03-21T23:44:31.189Z,8.70
2019-03-21T23:46:59.486Z,8.60
2019-03-21T23:49:27.807Z,8.50
2019-03-21T23:52:24.040Z,8.50
2019-03-21T23:55:08.643Z,8.40
2019-03-21T23:57:47.845Z,8.40
